createdAt,value
2017-06-01T00:00:47.286Z,0
2017-06-01T00:02:09.138Z,0
2017-06-01T00:03:31.277Z,0
2017-06-01T00:04:53.796Z,0
2017-06-01T00:06:16.112Z,0
2017-06-01T00:07:37.745Z,0
2017-06-01T00:09:00.008Z,0
2017-06-01T00:10:21.847Z,0
2017-06-01T00:11:44.022Z,0
2017-06-01T00:13:06.401Z,0
2017-06-01T00:14:28.520Z,0
2017-06-01T00:15:50.021Z,0
2017-06-01T00:17:12.169Z,0
2017-06-01T00:18:34.570Z,0
2017-06-01T00:19:56.177Z,0
2017-06-01T00:21:17.745Z,0
2017-06-01T00:22:39.913Z,0
2017-06-01T00:24:02.335Z,0
2017-06-01T00:25:23.932Z,0
2017-06-01T00:26:45.807Z,0
2017-06-01T00:28:08.355Z,0
2017-06-01T00:29:30.774Z,0
2017-06-01T00:30:52.902Z,0
2017-06-01T00:32:14.526Z,0
2017-06-01T00:33:36.716Z,0
2017-06-01T00:34:59.159Z,0
2017-06-01T00:36:20.799Z,0
2017-06-01T00:37:42.762Z,0
2017-06-01T00:39:04.949Z,0
2017-06-01T00:40:27.782Z,0
2017-06-01T00:41:49.948Z,0
2017-06-01T00:43:11.786Z,0
2017-06-01T00:44:34.398Z,0
2017-06-01T00:45:56.525Z,0
2017-06-01T00:47:18.026Z,0
2017-06-01T00:48:40.486Z,0
2017-06-01T00:50:02.306Z,0
2017-06-01T00:51:25.273Z,0
2017-06-01T00:52:47.735Z,0
2017-06-01T00:54:10.235Z,0
2017-06-01T00:55:32.406Z,0
2017-06-01T00:56:55.177Z,0
2017-06-01T00:58:17.326Z,0
2017-06-01T00:59:39.168Z,0
2017-06-01T01:01:01.093Z,0
2017-06-01T01:02:23.207Z,0
2017-06-01T01:03:44.802Z,0
2017-06-01T01:05:06.623Z,0
2017-06-01T01:06:28.123Z,0
2017-06-01T01:07:50.525Z,0
2017-06-01T01:09:12.154Z,0
2017-06-01T01:10:33.961Z,0
2017-06-01T01:11:55.775Z,0
2017-06-01T01:13:17.955Z,0
2017-06-01T01:14:39.805Z,0
2017-06-01T01:16:02.024Z,0
2017-06-01T01:17:23.865Z,0
2017-06-01T01:18:45.725Z,0
2017-06-01T01:20:08.130Z,0
2017-06-01T01:21:30.260Z,0
2017-06-01T01:22:51.441Z,0
2017-06-01T01:24:13.532Z,0
2017-06-01T01:25:35.742Z,0
2017-06-01T01:26:57.894Z,0
2017-06-01T01:28:20.444Z,0
2017-06-01T01:29:42.572Z,0
2017-06-01T01:31:04.400Z,0
2017-06-01T01:32:26.655Z,0
2017-06-01T01:33:49.111Z,0
2017-06-01T01:35:11.600Z,0
2017-06-01T01:36:33.242Z,0
2017-06-01T01:37:54.834Z,0
2017-06-01T01:39:16.699Z,0
2017-06-01T01:40:38.504Z,0
2017-06-01T01:42:00.348Z,0
2017-06-01T01:43:21.545Z,0
2017-06-01T01:44:43.378Z,0
2017-06-01T01:46:05.543Z,0
2017-06-01T01:47:27.993Z,0
2017-06-01T01:48:49.868Z,0
2017-06-01T01:50:11.388Z,0
2017-06-01T01:51:33.862Z,0
2017-06-01T01:52:56.034Z,0
2017-06-01T01:54:17.880Z,0
2017-06-01T01:55:39.403Z,0
2017-06-01T01:57:01.988Z,0
2017-06-01T01:58:24.443Z,0
2017-06-01T01:59:46.470Z,0
2017-06-01T02:01:08.524Z,0
2017-06-01T02:02:30.388Z,0
2017-06-01T02:03:52.742Z,0
2017-06-01T02:05:14.553Z,0
2017-06-01T02:06:36.163Z,0
2017-06-01T02:07:58.591Z,4
2017-06-01T02:09:20.490Z,4
2017-06-01T02:10:42.352Z,0
2017-06-01T02:12:04.505Z,0
2017-06-01T02:13:26.410Z,4
2017-06-01T02:14:48.268Z,4
2017-06-01T02:16:10.712Z,4
2017-06-01T02:17:32.076Z,4
2017-06-01T02:18:54.603Z,4
2017-06-01T02:20:16.981Z,8
2017-06-01T02:21:39.173Z,8
2017-06-01T02:23:01.644Z,8
2017-06-01T02:24:23.724Z,8
2017-06-01T02:25:45.557Z,12
2017-06-01T02:27:07.064Z,12
2017-06-01T02:28:28.870Z,12
2017-06-01T02:29:50.799Z,16
2017-06-01T02:31:13.334Z,20
2017-06-01T02:32:35.490Z,24
2017-06-01T02:33:57.400Z,28
2017-06-01T02:35:19.208Z,28
2017-06-01T02:36:41.355Z,36
2017-06-01T02:38:03.923Z,40
2017-06-01T02:39:26.099Z,48
2017-06-01T02:40:47.903Z,56
2017-06-01T02:42:09.413Z,64
2017-06-01T02:43:31.560Z,76
2017-06-01T02:44:53.703Z,84
2017-06-01T02:46:15.836Z,96
2017-06-01T02:47:38.301Z,112
2017-06-01T02:49:00.834Z,128
2017-06-01T02:50:23.284Z,148
2017-06-01T02:51:45.669Z,164
2017-06-01T02:53:07.213Z,184
2017-06-01T02:54:29.422Z,212
2017-06-01T02:55:51.712Z,232
2017-06-01T02:57:14.479Z,260
2017-06-01T02:58:36.970Z,288
2017-06-01T02:59:59.155Z,324
2017-06-01T03:01:21.725Z,356
2017-06-01T03:02:44.392Z,392
2017-06-01T03:04:06.218Z,428
2017-06-01T03:05:28.063Z,472
2017-06-01T03:06:49.899Z,516
2017-06-01T03:08:12.514Z,560
2017-06-01T03:09:34.841Z,608
2017-06-01T03:10:56.356Z,660
2017-06-01T03:12:18.494Z,712
2017-06-01T03:13:41.261Z,768
2017-06-01T03:15:03.133Z,828
2017-06-01T03:16:25.264Z,892
2017-06-01T03:17:47.083Z,956
2017-06-01T03:19:09.261Z,1020
2017-06-01T03:20:31.094Z,1088
2017-06-01T03:21:52.906Z,1160
2017-06-01T03:23:14.183Z,1232
2017-06-01T03:24:36.835Z,1312
2017-06-01T03:25:59.293Z,1380
2017-06-01T03:27:21.151Z,1440
2017-06-01T03:28:43.134Z,1524
2017-06-01T03:30:05.595Z,1632
2017-06-01T03:31:27.723Z,1724
2017-06-01T03:32:49.877Z,1784
2017-06-01T03:34:11.703Z,1836
2017-06-01T03:35:33.826Z,1980
2017-06-01T03:36:55.955Z,2088
2017-06-01T03:38:17.561Z,2160
2017-06-01T03:39:39.843Z,2236
2017-06-01T03:41:02.130Z,2300
2017-06-01T03:42:23.980Z,2352
2017-06-01T03:43:45.812Z,2412
2017-06-01T03:45:07.711Z,2520
2017-06-01T03:46:30.492Z,2632
2017-06-01T03:47:52.377Z,2740
2017-06-01T03:49:14.835Z,2848
2017-06-01T03:50:36.768Z,2932
2017-06-01T03:51:59.588Z,3024
2017-06-01T03:53:21.095Z,3112
2017-06-01T03:54:42.999Z,3200
2017-06-01T03:56:05.140Z,3296
2017-06-01T03:57:27.265Z,3380
2017-06-01T03:58:48.508Z,3456
2017-06-01T04:00:10.463Z,3524
2017-06-01T04:01:32.669Z,3592
2017-06-01T04:02:55.462Z,3664
2017-06-01T04:04:17.604Z,3748
2017-06-01T04:05:39.115Z,3832
2017-06-01T04:07:01.012Z,3924
2017-06-01T04:08:23.482Z,4012
2017-06-01T04:09:45.936Z,4104
2017-06-01T04:11:07.869Z,4184
2017-06-01T04:12:30.050Z,4252
2017-06-01T04:13:52.539Z,4324
2017-06-01T04:15:14.684Z,4400
2017-06-01T04:16:36.843Z,4472
2017-06-01T04:17:58.762Z,4560
2017-06-01T04:19:21.256Z,4640
2017-06-01T04:20:43.112Z,4696
2017-06-01T04:22:04.942Z,4756
2017-06-01T04:23:26.765Z,4728
2017-06-01T04:24:48.836Z,4760
2017-06-01T04:26:11.308Z,4876
2017-06-01T04:27:33.474Z,5100
2017-06-01T04:28:54.980Z,5196
2017-06-01T04:30:16.425Z,5288
2017-06-01T04:31:37.944Z,5364
2017-06-01T04:33:00.633Z,5444
2017-06-01T04:34:22.131Z,5512
2017-06-01T04:35:43.573Z,5608
2017-06-01T04:37:05.508Z,5776
2017-06-01T04:38:27.754Z,5964
2017-06-01T04:39:49.593Z,6140
2017-06-01T04:41:12.043Z,6360
2017-06-01T04:42:34.203Z,6800
2017-06-01T04:43:56.042Z,7216
2017-06-01T04:45:18.173Z,7536
2017-06-01T04:46:40.940Z,7920
2017-06-01T04:48:02.658Z,8356
2017-06-01T04:49:24.532Z,8136
2017-06-01T04:50:46.080Z,9448
2017-06-01T04:52:08.848Z,19040
2017-06-01T04:53:30.990Z,28576
2017-06-01T04:54:52.915Z,33376
2017-06-01T04:56:14.748Z,36448
2017-06-01T04:57:37.568Z,36800
2017-06-01T04:58:59.163Z,36480
2017-06-01T05:00:21.396Z,37152
2017-06-01T05:01:43.556Z,37760
2017-06-01T05:03:06.389Z,37184
2017-06-01T05:04:28.530Z,37312
2017-06-01T05:05:50.977Z,37888
2017-06-01T05:07:13.234Z,39072
2017-06-01T05:08:35.683Z,39296
2017-06-01T05:09:57.532Z,39104
2017-06-01T05:11:19.776Z,38560
2017-06-01T05:12:42.252Z,40032
2017-06-01T05:14:04.405Z,40704
2017-06-01T05:15:26.596Z,40576
2017-06-01T05:16:48.454Z,42784
2017-06-01T05:18:10.337Z,43104
2017-06-01T05:19:32.851Z,43392
2017-06-01T05:20:55.167Z,43552
2017-06-01T05:22:16.583Z,43392
2017-06-01T05:23:38.103Z,42080
2017-06-01T05:25:00.635Z,43168
2017-06-01T05:26:22.560Z,44448
2017-06-01T05:27:44.743Z,44224
2017-06-01T05:29:06.703Z,45408
2017-06-01T05:30:29.145Z,46304
2017-06-01T05:31:51.315Z,48000
2017-06-01T05:33:13.464Z,48544
2017-06-01T05:34:35.934Z,47968
2017-06-01T05:35:57.764Z,49024
2017-06-01T05:37:19.971Z,52288
2017-06-01T05:38:41.484Z,53440
2017-06-01T05:40:03.954Z,53280
2017-06-01T05:41:26.144Z,53504
2017-06-01T05:42:47.989Z,51136
2017-06-01T05:44:10.233Z,51680
2017-06-01T05:45:32.104Z,51392
2017-06-01T05:46:54.214Z,51840
2017-06-01T05:48:16.693Z,52448
2017-06-01T05:49:38.604Z,52288
2017-06-01T05:50:59.823Z,52736
2017-06-01T05:52:22.296Z,53376
2017-06-01T05:53:44.784Z,55136
2017-06-01T05:55:06.640Z,55808
2017-06-01T05:56:28.486Z,55616
2017-06-01T05:57:51.266Z,54848
2017-06-01T05:59:12.855Z,54304
2017-06-01T06:00:34.999Z,55168
2017-06-01T06:01:57.233Z,54752
2017-06-01T06:03:19.433Z,52384
2017-06-01T06:04:41.605Z,53120
2017-06-01T06:06:04.092Z,50080
2017-06-01T06:07:26.253Z,52832
2017-06-01T06:08:49.030Z,55232
2017-06-01T06:10:11.607Z,54848
2017-06-01T06:11:34.123Z,57312
2017-06-01T06:12:56.061Z,59616
2017-06-01T06:14:18.534Z,57760
2017-06-01T06:15:40.736Z,54944
2017-06-01T06:17:03.222Z,55296
2017-06-01T06:18:25.437Z,54240
2017-06-01T06:19:47.628Z,52480
2017-06-01T06:21:09.489Z,51328
2017-06-01T06:22:31.744Z,51392
2017-06-01T06:23:52.980Z,51424
2017-06-01T06:25:15.124Z,51424
2017-06-01T06:26:37.725Z,49856
2017-06-01T06:27:59.595Z,49792
2017-06-01T06:29:21.431Z,48224
2017-06-01T06:30:44.031Z,47872
2017-06-01T06:32:06.183Z,47328
2017-06-01T06:33:28.043Z,46240
2017-06-01T06:34:50.262Z,42432
2017-06-01T06:36:12.438Z,43680
2017-06-01T06:37:34.491Z,49248
2017-06-01T06:38:56.663Z,60032
2017-06-01T06:40:18.874Z,66624
2017-06-01T06:41:41.316Z,68000
2017-06-01T06:43:03.473Z,62208
2017-06-01T06:44:25.334Z,60032
2017-06-01T06:45:47.553Z,56352
2017-06-01T06:47:10.337Z,53760
2017-06-01T06:48:32.207Z,53408
2017-06-01T06:49:54.378Z,51136
2017-06-01T06:51:16.225Z,52000
2017-06-01T06:52:38.758Z,53344
2017-06-01T06:54:00.937Z,55616
2017-06-01T06:55:22.844Z,59200
2017-06-01T06:56:44.698Z,61472
2017-06-01T06:58:07.181Z,59360
2017-06-01T06:59:29.153Z,62624
2017-06-01T07:00:51.324Z,68416
2017-06-01T07:02:13.499Z,69792
2017-06-01T07:03:36.345Z,65248
2017-06-01T07:04:58.524Z,69856
2017-06-01T07:06:20.381Z,69376
2017-06-01T07:07:41.910Z,66400
2017-06-01T07:09:04.124Z,69280
2017-06-01T07:10:26.388Z,71328
2017-06-01T07:11:48.011Z,75456
2017-06-01T07:13:10.503Z,75328
2017-06-01T07:14:33.296Z,71392
2017-06-01T07:15:54.872Z,60608
2017-06-01T07:17:16.733Z,55904
2017-06-01T07:18:38.990Z,61536
2017-06-01T07:20:01.401Z,59616
2017-06-01T07:21:24.032Z,47872
2017-06-01T07:22:45.881Z,41440
2017-06-01T07:24:07.728Z,37216
2017-06-01T07:25:30.166Z,34400
2017-06-01T07:26:51.394Z,33440
2017-06-01T07:28:13.552Z,32096
2017-06-01T07:29:35.414Z,30752
2017-06-01T07:30:57.882Z,30656
2017-06-01T07:32:19.884Z,23360
2017-06-01T07:33:41.781Z,28544
2017-06-01T07:35:03.661Z,27104
2017-06-01T07:36:25.551Z,26336
2017-06-01T07:37:48.029Z,24896
2017-06-01T07:39:10.502Z,24480
2017-06-01T07:40:32.373Z,25568
2017-06-01T07:41:54.882Z,25248
2017-06-01T07:43:16.712Z,25536
2017-06-01T07:44:38.567Z,25984
2017-06-01T07:46:00.111Z,25248
2017-06-01T07:47:21.882Z,25248
2017-06-01T07:48:43.748Z,25248
2017-06-01T07:50:05.672Z,25536
2017-06-01T07:51:27.843Z,26112
2017-06-01T07:52:49.985Z,29152
2017-06-01T07:54:12.501Z,29152
2017-06-01T07:55:34.349Z,25728
2017-06-01T07:56:56.822Z,25888
2017-06-01T07:58:19.301Z,24672
2017-06-01T07:59:41.792Z,24096
2017-06-01T08:01:04.043Z,21888
2017-06-01T08:02:25.985Z,20992
2017-06-01T08:03:47.852Z,22464
2017-06-01T08:05:10.062Z,23136
2017-06-01T08:06:32.559Z,20288
2017-06-01T08:07:55.002Z,16972
2017-06-01T08:09:16.942Z,12096
2017-06-01T08:10:38.567Z,10940
2017-06-01T08:12:00.623Z,10268
2017-06-01T08:13:22.464Z,9964
2017-06-01T08:14:44.882Z,10416
2017-06-01T08:16:07.060Z,11640
2017-06-01T08:17:28.935Z,10384
2017-06-01T08:18:51.101Z,9788
2017-06-01T08:20:13.683Z,9772
2017-06-01T08:21:35.519Z,9384
2017-06-01T08:22:57.370Z,8768
2017-06-01T08:24:19.581Z,8352
2017-06-01T08:25:41.788Z,8140
2017-06-01T08:27:03.634Z,7972
2017-06-01T08:28:25.835Z,7812
2017-06-01T08:29:48.312Z,7620
2017-06-01T08:31:11.259Z,7420
2017-06-01T08:32:33.721Z,7336
2017-06-01T08:33:55.230Z,7124
2017-06-01T08:35:16.488Z,6752
2017-06-01T08:36:38.941Z,7028
2017-06-01T08:38:01.423Z,7064
2017-06-01T08:39:23.585Z,7112
2017-06-01T08:40:45.422Z,7036
2017-06-01T08:42:07.883Z,6864
2017-06-01T08:43:30.502Z,6880
2017-06-01T08:44:52.332Z,6912
2017-06-01T08:46:14.161Z,6884
2017-06-01T08:47:35.751Z,6868
2017-06-01T08:48:58.001Z,6880
2017-06-01T08:50:20.161Z,6940
2017-06-01T08:51:41.992Z,6964
2017-06-01T08:53:04.494Z,6904
2017-06-01T08:54:26.681Z,6824
2017-06-01T08:55:48.211Z,6704
2017-06-01T08:57:10.685Z,6580
2017-06-01T08:58:33.452Z,6480
2017-06-01T08:59:55.683Z,6528
2017-06-01T09:01:18.172Z,6528
2017-06-01T09:02:39.687Z,6504
2017-06-01T09:04:01.853Z,6488
2017-06-01T09:05:23.695Z,6496
2017-06-01T09:06:45.845Z,6496
2017-06-01T09:08:08.431Z,6480
2017-06-01T09:09:30.602Z,6388
2017-06-01T09:10:52.547Z,6320
2017-06-01T09:12:14.075Z,6156
2017-06-01T09:13:36.343Z,6548
2017-06-01T09:14:58.905Z,6208
2017-06-01T09:16:21.050Z,6232
2017-06-01T09:17:42.893Z,6252
2017-06-01T09:19:05.484Z,6232
2017-06-01T09:20:27.941Z,6224
2017-06-01T09:21:50.173Z,6232
2017-06-01T09:23:12.644Z,6224
2017-06-01T09:24:34.810Z,6204
2017-06-01T09:25:57.232Z,6192
2017-06-01T09:27:19.168Z,6136
2017-06-01T09:28:40.702Z,6140
2017-06-01T09:30:02.244Z,6120
2017-06-01T09:31:24.753Z,6048
2017-06-01T09:32:46.970Z,6044
2017-06-01T09:34:09.432Z,6000
2017-06-01T09:35:31.670Z,5848
2017-06-01T09:36:54.505Z,6072
2017-06-01T09:38:16.691Z,6096
2017-06-01T09:39:37.878Z,6032
2017-06-01T09:40:59.730Z,6000
2017-06-01T09:42:21.903Z,6024
2017-06-01T09:43:44.624Z,5988
2017-06-01T09:45:06.456Z,5900
2017-06-01T09:46:28.284Z,5864
2017-06-01T09:47:50.162Z,5904
2017-06-01T09:49:12.673Z,5916
2017-06-01T09:50:34.203Z,5924
2017-06-01T09:51:56.829Z,5928
2017-06-01T09:53:19.285Z,5912
2017-06-01T09:54:41.458Z,5872
2017-06-01T09:56:03.294Z,5848
2017-06-01T09:57:24.859Z,5860
2017-06-01T09:58:47.775Z,5812
2017-06-01T10:00:09.292Z,5768
2017-06-01T10:01:31.149Z,5732
2017-06-01T10:02:53.162Z,5708
2017-06-01T10:04:15.583Z,5708
2017-06-01T10:05:37.431Z,5692
2017-06-01T10:06:58.642Z,5708
2017-06-01T10:08:20.484Z,5704
2017-06-01T10:09:42.710Z,5692
2017-06-01T10:11:04.561Z,5672
2017-06-01T10:12:26.096Z,5672
2017-06-01T10:13:48.313Z,5668
2017-06-01T10:15:10.764Z,5652
2017-06-01T10:16:33.132Z,5636
2017-06-01T10:17:54.970Z,5644
2017-06-01T10:19:17.101Z,5616
2017-06-01T10:20:39.543Z,5588
2017-06-01T10:22:01.082Z,5568
2017-06-01T10:23:23.233Z,5556
2017-06-01T10:24:45.441Z,5588
2017-06-01T10:26:08.220Z,5644
2017-06-01T10:27:30.698Z,5692
2017-06-01T10:28:52.212Z,5720
2017-06-01T10:30:13.743Z,5724
2017-06-01T10:31:35.854Z,5728
2017-06-01T10:32:58.012Z,5692
2017-06-01T10:34:20.480Z,5640
2017-06-01T10:35:42.334Z,5624
2017-06-01T10:37:05.112Z,5628
2017-06-01T10:38:27.843Z,5628
2017-06-01T10:39:50.322Z,5616
2017-06-01T10:41:12.902Z,5608
2017-06-01T10:42:35.032Z,5600
2017-06-01T10:43:57.247Z,5616
2017-06-01T10:45:19.391Z,5640
2017-06-01T10:46:41.653Z,5676
2017-06-01T10:48:04.122Z,5700
2017-06-01T10:49:26.594Z,5732
2017-06-01T10:50:49.062Z,5736
2017-06-01T10:52:11.198Z,5752
2017-06-01T10:53:33.329Z,5792
2017-06-01T10:54:55.470Z,5836
2017-06-01T10:56:16.980Z,5892
2017-06-01T10:57:39.137Z,5960
2017-06-01T10:59:01.642Z,6028
2017-06-01T11:00:23.599Z,6108
2017-06-01T11:01:46.065Z,6204
2017-06-01T11:03:07.685Z,6268
2017-06-01T11:04:30.202Z,6292
2017-06-01T11:05:52.059Z,6260
2017-06-01T11:07:13.572Z,6312
2017-06-01T11:08:35.520Z,6376
2017-06-01T11:09:57.352Z,6356
2017-06-01T11:11:19.189Z,6288
2017-06-01T11:12:40.718Z,6272
2017-06-01T11:14:02.560Z,6192
2017-06-01T11:15:24.653Z,6160
2017-06-01T11:16:46.478Z,6184
2017-06-01T11:18:08.002Z,6148
2017-06-01T11:19:30.492Z,6236
2017-06-01T11:20:52.323Z,6300
2017-06-01T11:22:14.791Z,6344
2017-06-01T11:23:36.669Z,6388
2017-06-01T11:24:59.214Z,6404
2017-06-01T11:26:21.728Z,6408
2017-06-01T11:27:43.913Z,6420
2017-06-01T11:29:06.085Z,6436
2017-06-01T11:30:28.022Z,6460
2017-06-01T11:31:50.432Z,6500
2017-06-01T11:33:12.316Z,6552
2017-06-01T11:34:34.580Z,6568
2017-06-01T11:35:56.743Z,6536
2017-06-01T11:37:18.964Z,6524
2017-06-01T11:38:41.497Z,6584
2017-06-01T11:40:03.352Z,6632
2017-06-01T11:41:24.902Z,6628
2017-06-01T11:42:47.328Z,6616
2017-06-01T11:44:09.494Z,6616
2017-06-01T11:45:31.653Z,6588
2017-06-01T11:46:53.838Z,6584
2017-06-01T11:48:15.969Z,6564
2017-06-01T11:49:38.552Z,6604
2017-06-01T11:51:00.403Z,6608
2017-06-01T11:52:22.355Z,6516
2017-06-01T11:53:44.175Z,6384
2017-06-01T11:55:06.374Z,6276
2017-06-01T11:56:28.229Z,6020
2017-06-01T11:57:50.758Z,5900
2017-06-01T11:59:13.437Z,5956
2017-06-01T12:00:35.439Z,5868
2017-06-01T12:01:57.276Z,5748
2017-06-01T12:03:19.101Z,5668
2017-06-01T12:04:40.920Z,5664
2017-06-01T12:06:02.773Z,5664
2017-06-01T12:07:24.925Z,5728
2017-06-01T12:08:47.171Z,5632
2017-06-01T12:10:09.352Z,5664
2017-06-01T12:11:31.205Z,5592
2017-06-01T12:12:53.701Z,5628
2017-06-01T12:14:15.651Z,5312
2017-06-01T12:15:38.364Z,5564
2017-06-01T12:17:00.924Z,5444
2017-06-01T12:18:23.075Z,5352
2017-06-01T12:19:45.559Z,5376
2017-06-01T12:21:08.110Z,5576
2017-06-01T12:22:29.662Z,5584
2017-06-01T12:23:51.814Z,5632
2017-06-01T12:25:14.326Z,5688
2017-06-01T12:26:36.824Z,5744
2017-06-01T12:27:58.986Z,5828
2017-06-01T12:29:20.858Z,5892
2017-06-01T12:30:43.015Z,5936
2017-06-01T12:32:04.889Z,5952
2017-06-01T12:33:27.074Z,5948
2017-06-01T12:34:48.982Z,5828
2017-06-01T12:36:10.834Z,5524
2017-06-01T12:37:33.049Z,5792
2017-06-01T12:38:55.219Z,5780
2017-06-01T12:40:17.639Z,5508
2017-06-01T12:41:40.132Z,5580
2017-06-01T12:43:02.922Z,5512
2017-06-01T12:44:24.780Z,5412
2017-06-01T12:45:47.262Z,5392
2017-06-01T12:47:08.512Z,5348
2017-06-01T12:48:30.984Z,5328
2017-06-01T12:49:52.913Z,5328
2017-06-01T12:51:15.403Z,5292
2017-06-01T12:52:37.959Z,5248
2017-06-01T12:54:00.092Z,5116
2017-06-01T12:55:22.572Z,4984
2017-06-01T12:56:45.022Z,4972
2017-06-01T12:58:07.512Z,4976
2017-06-01T12:59:30.422Z,4912
2017-06-01T13:00:51.993Z,4876
2017-06-01T13:02:13.845Z,4828
2017-06-01T13:03:36.338Z,4784
2017-06-01T13:04:58.762Z,4928
2017-06-01T13:06:21.032Z,4900
2017-06-01T13:07:42.993Z,4868
2017-06-01T13:09:04.949Z,4852
2017-06-01T13:10:26.203Z,4844
2017-06-01T13:11:48.362Z,4844
2017-06-01T13:13:09.872Z,4824
2017-06-01T13:14:32.342Z,4816
2017-06-01T13:15:55.170Z,4812
2017-06-01T13:17:17.008Z,4796
2017-06-01T13:18:39.542Z,4776
2017-06-01T13:20:01.084Z,4772
2017-06-01T13:21:23.669Z,4764
2017-06-01T13:22:45.511Z,4752
2017-06-01T13:24:07.382Z,4744
2017-06-01T13:25:29.863Z,4736
2017-06-01T13:26:52.832Z,4728
2017-06-01T13:28:15.328Z,4724
2017-06-01T13:29:37.569Z,4724
2017-06-01T13:30:59.412Z,4720
2017-06-01T13:32:21.649Z,4720
2017-06-01T13:33:43.501Z,4712
2017-06-01T13:35:05.042Z,4712
2017-06-01T13:36:27.215Z,4712
2017-06-01T13:37:50.063Z,4716
2017-06-01T13:39:12.236Z,4724
2017-06-01T13:40:34.608Z,4716
2017-06-01T13:41:56.798Z,4732
2017-06-01T13:43:19.252Z,4740
2017-06-01T13:44:41.744Z,4736
2017-06-01T13:46:04.232Z,4732
2017-06-01T13:47:25.768Z,4720
2017-06-01T13:48:47.913Z,4736
2017-06-01T13:50:10.535Z,4744
2017-06-01T13:51:32.431Z,4744
2017-06-01T13:52:54.602Z,4740
2017-06-01T13:54:17.274Z,4732
2017-06-01T13:55:39.547Z,4728
2017-06-01T13:57:01.457Z,4720
2017-06-01T13:58:23.634Z,4720
2017-06-01T13:59:46.492Z,4708
2017-06-01T14:01:08.974Z,4692
2017-06-01T14:02:31.474Z,4684
2017-06-01T14:03:53.665Z,4672
2017-06-01T14:05:15.859Z,4668
2017-06-01T14:06:38.031Z,4664
2017-06-01T14:07:59.891Z,4672
2017-06-01T14:09:21.739Z,4680
2017-06-01T14:10:44.522Z,4684
2017-06-01T14:12:06.687Z,4688
2017-06-01T14:13:28.270Z,4684
2017-06-01T14:14:50.766Z,4684
2017-06-01T14:16:12.926Z,4688
2017-06-01T14:17:35.555Z,4692
2017-06-01T14:18:57.162Z,4688
2017-06-01T14:20:19.384Z,4696
2017-06-01T14:21:41.381Z,4696
2017-06-01T14:23:03.303Z,4688
2017-06-01T14:24:25.203Z,4680
2017-06-01T14:25:47.710Z,4672
2017-06-01T14:27:10.131Z,4656
2017-06-01T14:28:32.014Z,4648
2017-06-01T14:29:54.202Z,4644
2017-06-01T14:31:16.361Z,4640
2017-06-01T14:32:38.838Z,4632
2017-06-01T14:34:01.340Z,4620
2017-06-01T14:35:22.922Z,4620
2017-06-01T14:36:45.081Z,4612
2017-06-01T14:38:07.341Z,4612
2017-06-01T14:39:29.493Z,4608
2017-06-01T14:40:52.032Z,4608
2017-06-01T14:42:13.932Z,4608
2017-06-01T14:43:36.443Z,4600
2017-06-01T14:44:58.922Z,4596
2017-06-01T14:46:21.113Z,4596
2017-06-01T14:47:43.655Z,4588
2017-06-01T14:49:06.487Z,4572
2017-06-01T14:50:28.633Z,4564
2017-06-01T14:51:50.874Z,4560
2017-06-01T14:53:12.602Z,4564
2017-06-01T14:54:35.202Z,4568
2017-06-01T14:55:57.488Z,4564
2017-06-01T14:57:19.983Z,4556
2017-06-01T14:58:42.152Z,4568
2017-06-01T15:00:05.014Z,4576
2017-06-01T15:01:27.481Z,4572
2017-06-01T15:02:48.794Z,4572
2017-06-01T15:04:11.340Z,4568
2017-06-01T15:05:33.828Z,4564
2017-06-01T15:06:55.994Z,4556
2017-06-01T15:08:18.151Z,4552
2017-06-01T15:09:40.333Z,4544
2017-06-01T15:11:02.913Z,4552
2017-06-01T15:12:25.110Z,4576
2017-06-01T15:13:47.320Z,4572
2017-06-01T15:15:09.588Z,4580
2017-06-01T15:16:32.412Z,4576
2017-06-01T15:17:54.267Z,4568
2017-06-01T15:19:16.113Z,4560
2017-06-01T15:20:38.291Z,4556
2017-06-01T15:22:01.211Z,4556
2017-06-01T15:23:23.074Z,4556
2017-06-01T15:24:45.802Z,4560
2017-06-01T15:26:07.645Z,4560
2017-06-01T15:27:30.654Z,4560
2017-06-01T15:28:53.202Z,4552
2017-06-01T15:30:15.692Z,4548
2017-06-01T15:31:38.207Z,4544
2017-06-01T15:33:00.309Z,4536
2017-06-01T15:34:22.964Z,4528
2017-06-01T15:35:44.950Z,4520
2017-06-01T15:37:07.123Z,4512
2017-06-01T15:38:29.952Z,4508
2017-06-01T15:39:52.452Z,4508
2017-06-01T15:41:14.650Z,4504
2017-06-01T15:42:36.655Z,4500
2017-06-01T15:43:59.099Z,4496
2017-06-01T15:45:21.632Z,4488
2017-06-01T15:46:43.876Z,4488
2017-06-01T15:48:06.033Z,4484
2017-06-01T15:49:28.252Z,4480
2017-06-01T15:50:50.522Z,4484
2017-06-01T15:52:13.009Z,4488
2017-06-01T15:53:35.221Z,4484
2017-06-01T15:54:57.639Z,4476
2017-06-01T15:56:20.392Z,4472
2017-06-01T15:57:42.561Z,4468
2017-06-01T15:59:05.048Z,4456
2017-06-01T16:00:27.569Z,4452
2017-06-01T16:01:49.437Z,4448
2017-06-01T16:03:11.629Z,4436
2017-06-01T16:04:33.494Z,4420
2017-06-01T16:05:56.542Z,4408
2017-06-01T16:07:18.743Z,4392
2017-06-01T16:08:40.478Z,4380
2017-06-01T16:10:02.169Z,4364
2017-06-01T16:11:24.761Z,4348
2017-06-01T16:12:46.594Z,4336
2017-06-01T16:14:08.516Z,4328
2017-06-01T16:15:31.002Z,4320
2017-06-01T16:16:53.777Z,4312
2017-06-01T16:18:15.970Z,4316
2017-06-01T16:19:38.193Z,4308
2017-06-01T16:21:00.141Z,4304
2017-06-01T16:22:22.616Z,4304
2017-06-01T16:23:44.860Z,4300
2017-06-01T16:25:07.029Z,4288
2017-06-01T16:26:29.261Z,4280
2017-06-01T16:27:52.054Z,4276
2017-06-01T16:29:14.621Z,4272
2017-06-01T16:30:37.131Z,4268
2017-06-01T16:31:59.386Z,4256
2017-06-01T16:33:21.544Z,4248
2017-06-01T16:34:43.725Z,4240
2017-06-01T16:36:05.272Z,4240
2017-06-01T16:37:27.620Z,4240
2017-06-01T16:38:50.303Z,4240
2017-06-01T16:40:12.182Z,4240
2017-06-01T16:41:34.437Z,4240
2017-06-01T16:42:56.781Z,4240
2017-06-01T16:44:19.669Z,4240
2017-06-01T16:45:41.832Z,4232
2017-06-01T16:47:04.123Z,4236
2017-06-01T16:48:26.303Z,4236
2017-06-01T16:49:49.131Z,4228
2017-06-01T16:51:11.340Z,4228
2017-06-01T16:52:33.222Z,4220
2017-06-01T16:53:55.180Z,4212
2017-06-01T16:55:17.386Z,4216
2017-06-01T16:56:39.896Z,4212
2017-06-01T16:58:02.403Z,4204
2017-06-01T16:59:24.641Z,4196
2017-06-01T17:00:47.114Z,4184
2017-06-01T17:02:09.452Z,4172
2017-06-01T17:03:31.943Z,4160
2017-06-01T17:04:54.472Z,4152
2017-06-01T17:06:16.624Z,4140
2017-06-01T17:07:38.817Z,4124
2017-06-01T17:09:00.676Z,4108
2017-06-01T17:10:22.883Z,4092
2017-06-01T17:11:45.633Z,4080
2017-06-01T17:13:07.801Z,4060
2017-06-01T17:14:30.424Z,4044
2017-06-01T17:15:52.925Z,4028
2017-06-01T17:17:15.196Z,4012
2017-06-01T17:18:37.415Z,4000
2017-06-01T17:19:59.620Z,3988
2017-06-01T17:21:22.120Z,3972
2017-06-01T17:22:44.920Z,3956
2017-06-01T17:24:06.789Z,3940
2017-06-01T17:25:29.058Z,3928
2017-06-01T17:26:50.919Z,3916
2017-06-01T17:28:12.933Z,3904
2017-06-01T17:29:35.557Z,3892
2017-06-01T17:30:57.610Z,3880
2017-06-01T17:32:20.122Z,3872
2017-06-01T17:33:42.902Z,3860
2017-06-01T17:35:05.159Z,3844
2017-06-01T17:36:27.660Z,3824
2017-06-01T17:37:50.178Z,3812
2017-06-01T17:39:12.397Z,3800
2017-06-01T17:40:34.698Z,3784
2017-06-01T17:41:56.613Z,3772
2017-06-01T17:43:19.114Z,3752
2017-06-01T17:44:41.918Z,3736
2017-06-01T17:46:04.466Z,3708
2017-06-01T17:47:27.315Z,3672
2017-06-01T17:48:49.490Z,3648
2017-06-01T17:50:11.981Z,3612
2017-06-01T17:51:34.170Z,3580
2017-06-01T17:52:56.101Z,3536
2017-06-01T17:54:17.659Z,3492
2017-06-01T17:55:40.089Z,3440
2017-06-01T17:57:02.280Z,3404
2017-06-01T17:58:24.461Z,3380
2017-06-01T17:59:47.020Z,3368
2017-06-01T18:01:09.806Z,3372
2017-06-01T18:02:31.969Z,3368
2017-06-01T18:03:54.459Z,3364
2017-06-01T18:05:16.723Z,3360
2017-06-01T18:06:39.478Z,3348
2017-06-01T18:08:01.650Z,3336
2017-06-01T18:09:24.219Z,3320
2017-06-01T18:10:46.479Z,3296
2017-06-01T18:12:08.700Z,3288
2017-06-01T18:13:31.196Z,3272
2017-06-01T18:14:53.045Z,3256
2017-06-01T18:16:14.910Z,3228
2017-06-01T18:17:37.081Z,3184
2017-06-01T18:18:59.250Z,3116
2017-06-01T18:20:21.160Z,3024
2017-06-01T18:21:43.360Z,2976
2017-06-01T18:23:05.800Z,3020